createdAt,value
2022-08-24T10:20:04.938Z,69824
2022-08-24T10:21:07.262Z,129248
2022-08-24T10:22:10.043Z,128032
2022-08-24T10:23:13.407Z,127808
2022-08-24T10:24:15.987Z,128448
2022-08-24T10:25:18.587Z,43168
2022-08-24T10:26:22.344Z,30912
2022-08-24T10:27:24.934Z,129472
2022-08-24T10:28:28.081Z,127264
2022-08-24T10:29:30.774Z,125024
2022-08-24T10:30:34.139Z,122144
2022-08-24T10:31:36.385Z,128288
2022-08-24T10:32:41.603Z,129792
2022-08-24T10:33:44.788Z,128608
2022-08-24T10:34:47.646Z,130048
2022-08-24T10:35:50.228Z,133312
2022-08-24T10:36:53.015Z,131360
2022-08-24T10:37:56.353Z,130912
2022-08-24T10:38:59.917Z,118144
2022-08-24T10:40:06.100Z,48160
2022-08-24T10:41:13.444Z,65504
2022-08-24T10:42:17.245Z,32288
2022-08-24T10:43:24.016Z,27456
2022-08-24T10:44:28.515Z,28384
2022-08-24T10:45:31.340Z,57312
2022-08-24T10:46:34.700Z,140128
2022-08-24T10:47:37.644Z,128256
2022-08-24T15:42:47.090Z,5928
2022-08-24T15:43:50.498Z,5960
2022-08-24T15:44:53.631Z,5888
2022-08-24T16:51:07.586Z,3176
2022-08-24T16:52:10.452Z,3148
2022-08-24T16:53:13.303Z,3096
2022-08-24T16:54:16.476Z,3052
2022-08-24T16:55:19.524Z,3020
2022-08-24T16:56:22.675Z,2996
2022-08-24T16:57:25.241Z,2964
2022-08-24T16:58:28.087Z,2956
2022-08-24T16:59:31.147Z,2924
2022-08-24T17:00:34.009Z,2896
2022-08-24T17:01:36.765Z,2868
2022-08-24T17:02:40.154Z,2852
2022-08-24T17:03:43.881Z,2824
2022-08-24T17:04:46.677Z,2800
2022-08-24T17:05:50.683Z,2780
2022-08-24T17:06:53.474Z,2756
2022-08-24T17:07:55.986Z,2740
2022-08-24T17:08:58.486Z,2720
2022-08-24T17:10:01.856Z,2704
2022-08-24T17:11:04.996Z,2676
2022-08-24T17:12:08.764Z,2656
2022-08-24T17:13:14.234Z,2628
2022-08-24T17:14:53.063Z,2592
2022-08-24T17:15:59.934Z,2560
2022-08-24T17:17:03.278Z,2552
2022-08-24T17:18:06.623Z,2508
2022-08-24T17:19:09.626Z,2484
2022-08-24T17:20:19.628Z,2452
2022-08-24T17:57:38.053Z,1248
2022-08-24T17:58:40.633Z,1200
2022-08-24T17:59:43.408Z,1164
2022-08-24T18:00:46.590Z,1116
2022-08-24T18:01:49.487Z,1076
2022-08-24T18:02:52.299Z,1036
2022-08-24T18:03:55.235Z,992
2022-08-24T18:04:58.241Z,956
2022-08-24T18:06:01.221Z,908
2022-08-24T18:07:04.080Z,868
2022-08-24T18:08:10.598Z,820
2022-08-24T18:09:13.839Z,776
2022-08-24T18:10:16.982Z,732
2022-08-24T18:11:23.942Z,692
2022-08-24T18:12:29.483Z,648
2022-08-24T18:13:32.192Z,608
2022-08-24T18:14:35.608Z,564
2022-08-24T18:15:38.964Z,528
2022-08-24T18:16:42.232Z,492
2022-08-24T18:18:00.859Z,444
2022-08-24T18:19:04.000Z,412
2022-08-24T18:20:06.980Z,384
2022-08-24T18:21:09.523Z,352
2022-08-24T18:22:12.936Z,328
2022-08-24T18:23:17.457Z,304
2022-08-24T18:24:28.605Z,276
2022-08-24T18:25:31.195Z,248
2022-08-24T18:26:34.620Z,224
2022-08-24T18:27:37.315Z,200
2022-08-24T18:28:45.180Z,176
2022-08-24T18:29:50.403Z,156
2022-08-24T18:31:05.969Z,132
2022-08-24T18:32:08.698Z,120
2022-08-24T18:33:11.645Z,108
2022-08-24T18:34:14.433Z,92
2022-08-24T18:36:21.053Z,68
2022-08-24T18:37:24.280Z,56
2022-08-24T18:38:27.338Z,52
2022-08-24T18:39:30.207Z,44
2022-08-24T18:40:34.522Z,36
2022-08-24T18:41:39.146Z,32
2022-08-24T18:42:42.126Z,28
2022-08-24T18:43:46.537Z,24
2022-08-24T18:44:49.462Z,20
2022-08-24T18:45:52.589Z,20
2022-08-24T18:46:56.029Z,16
2022-08-24T18:47:58.539Z,12
2022-08-24T18:49:02.264Z,12
2022-08-24T18:50:05.126Z,8
2022-08-24T18:51:07.640Z,8
2022-08-24T18:52:10.152Z,4
2022-08-24T18:53:13.494Z,4
2022-08-24T18:54:16.940Z,4
2022-08-24T18:55:20.431Z,4
2022-08-24T18:56:23.496Z,4
2022-08-24T18:57:26.076Z,0
2022-08-24T18:58:29.221Z,4
2022-08-24T18:59:31.923Z,4
2022-08-24T19:00:35.322Z,0
